sensor_id;sensor_type;location;lat;lon;timestamp;temperature;humidity
68385;DHT22;55336;43.062;25.626;2022-08-21T00:01:49;23.10;99.90
68385;DHT22;55336;43.062;25.626;2022-08-21T00:04:15;23.00;99.90
68385;DHT22;55336;43.062;25.626;2022-08-21T00:06:41;22.90;99.90
68385;DHT22;55336;43.062;25.626;2022-08-21T00:09:07;22.80;99.90
68385;DHT22;55336;43.062;25.626;2022-08-21T00:11:35;22.70;99.90
68385;DHT22;55336;43.062;25.626;2022-08-21T00:14:01;22.60;99.90
68385;DHT22;55336;43.062;25.626;2022-08-21T00:16:27;22.50;99.90
68385;DHT22;55336;43.062;25.626;2022-08-21T00:18:55;22.50;99.90
68385;DHT22;55336;43.062;25.626;2022-08-21T00:21:21;22.40;99.90
68385;DHT22;55336;43.062;25.626;2022-08-21T00:23:48;22.30;99.90
68385;DHT22;55336;43.062;25.626;2022-08-21T00:26:13;22.30;99.90
68385;DHT22;55336;43.062;25.626;2022-08-21T00:28:39;22.20;99.90
68385;DHT22;55336;43.062;25.626;2022-08-21T00:31:05;22.20;99.90
68385;DHT22;55336;43.062;25.626;2022-08-21T00:33:31;22.10;99.90
68385;DHT22;55336;43.062;25.626;2022-08-21T00:35:57;22.00;99.90
68385;DHT22;55336;43.062;25.626;2022-08-21T00:38:23;21.80;99.90
68385;DHT22;55336;43.062;25.626;2022-08-21T00:40:53;21.50;99.90
68385;DHT22;55336;43.062;25.626;2022-08-21T00:43:31;21.50;99.90
68385;DHT22;55336;43.062;25.626;2022-08-21T00:46:00;21.50;99.90
68385;DHT22;55336;43.062;25.626;2022-08-21T00:48:26;21.30;99.90
68385;DHT22;55336;43.062;25.626;2022-08-21T00:50:57;21.30;99.90
68385;DHT22;55336;43.062;25.626;2022-08-21T00:53:24;21.20;99.90
68385;DHT22;55336;43.062;25.626;2022-08-21T00:55:51;21.20;99.90
68385;DHT22;55336;43.062;25.626;2022-08-21T00:58:18;21.20;99.90
68385;DHT22;55336;43.062;25.626;2022-08-21T01:00:46;21.20;99.90
68385;DHT22;55336;43.062;25.626;2022-08-21T01:03:16;21.20;99.90
68385;DHT22;55336;43.062;25.626;2022-08-21T01:05:43;21.10;99.90
68385;DHT22;55336;43.062;25.626;2022-08-21T01:08:10;21.10;99.90
68385;DHT22;55336;43.062;25.626;2022-08-21T01:10:37;21.10;99.90
68385;DHT22;55336;43.062;25.626;2022-08-21T01:13:08;21.10;99.90
68385;DHT22;55336;43.062;25.626;2022-08-21T01:15:38;21.10;99.90
68385;DHT22;55336;43.062;25.626;2022-08-21T01:18:07;21.10;99.90
68385;DHT22;55336;43.062;25.626;2022-08-21T01:20:36;21.10;99.90
68385;DHT22;55336;43.062;25.626;2022-08-21T01:23:04;21.10;99.90
68385;DHT22;55336;43.062;25.626;2022-08-21T01:25:31;21.00;99.90
68385;DHT22;55336;43.062;25.626;2022-08-21T01:28:01;21.00;99.90
68385;DHT22;55336;43.062;25.626;2022-08-21T01:30:28;21.00;99.90
68385;DHT22;55336;43.062;25.626;2022-08-21T01:32:55;21.00;99.90
68385;DHT22;55336;43.062;25.626;2022-08-21T01:35:22;20.90;99.90
68385;DHT22;55336;43.062;25.626;2022-08-21T01:37:48;20.90;99.90
68385;DHT22;55336;43.062;25.626;2022-08-21T01:40:15;20.90;99.90
68385;DHT22;55336;43.062;25.626;2022-08-21T01:42:43;20.90;99.90
68385;DHT22;55336;43.062;25.626;2022-08-21T01:45:11;20.90;99.90
68385;DHT22;55336;43.062;25.626;2022-08-21T01:47:37;20.90;99.90
68385;DHT22;55336;43.062;25.626;2022-08-21T01:50:05;20.90;99.90
68385;DHT22;55336;43.062;25.626;2022-08-21T01:52:32;20.80;99.90
68385;DHT22;55336;43.062;25.626;2022-08-21T01:54:57;20.80;99.90
68385;DHT22;55336;43.062;25.626;2022-08-21T01:57:24;20.80;99.90
68385;DHT22;55336;43.062;25.626;2022-08-21T01:59:50;20.80;99.90
68385;DHT22;55336;43.062;25.626;2022-08-21T02:02:16;20.70;99.90
68385;DHT22;55336;43.062;25.626;2022-08-21T02:04:42;20.70;99.90
68385;DHT22;55336;43.062;25.626;2022-08-21T02:07:08;20.70;99.90
68385;DHT22;55336;43.062;25.626;2022-08-21T02:09:34;20.70;99.90
68385;DHT22;55336;43.062;25.626;2022-08-21T02:12:00;20.70;99.90
68385;DHT22;55336;43.062;25.626;2022-08-21T02:14:26;20.70;99.90
68385;DHT22;55336;43.062;25.626;2022-08-21T02:16:52;20.80;99.90
68385;DHT22;55336;43.062;25.626;2022-08-21T02:19:18;20.70;99.90
68385;DHT22;55336;43.062;25.626;2022-08-21T02:21:44;20.70;99.90
68385;DHT22;55336;43.062;25.626;2022-08-21T02:24:11;20.70;99.90
68385;DHT22;55336;43.062;25.626;2022-08-21T02:26:37;20.70;99.90
68385;DHT22;55336;43.062;25.626;2022-08-21T02:29:04;20.70;99.90
68385;DHT22;55336;43.062;25.626;2022-08-21T02:31:30;20.70;99.90
68385;DHT22;55336;43.062;25.626;2022-08-21T02:33:57;20.70;99.90
68385;DHT22;55336;43.062;25.626;2022-08-21T02:36:23;20.60;99.90
68385;DHT22;55336;43.062;25.626;2022-08-21T02:38:49;20.60;99.90
68385;DHT22;55336;43.062;25.626;2022-08-21T02:41:18;20.60;99.90
68385;DHT22;55336;43.062;25.626;2022-08-21T02:43:44;20.60;99.90
68385;DHT22;55336;43.062;25.626;2022-08-21T02:46:13;20.50;99.90
68385;DHT22;55336;43.062;25.626;2022-08-21T02:48:40;20.40;99.90
68385;DHT22;55336;43.062;25.626;2022-08-21T02:51:12;20.50;99.90
68385;DHT22;55336;43.062;25.626;2022-08-21T02:53:40;20.40;99.90
68385;DHT22;55336;43.062;25.626;2022-08-21T02:56:10;20.40;99.90
68385;DHT22;55336;43.062;25.626;2022-08-21T02:58:41;20.50;99.90
68385;DHT22;55336;43.062;25.626;2022-08-21T03:01:08;20.50;99.90
68385;DHT22;55336;43.062;25.626;2022-08-21T03:03:37;20.50;99.90
68385;DHT22;55336;43.062;25.626;2022-08-21T03:06:05;20.50;99.90
68385;DHT22;55336;43.062;25.626;2022-08-21T03:08:31;20.50;99.90
68385;DHT22;55336;43.062;25.626;2022-08-21T03:10:57;20.50;99.90
68385;DHT22;55336;43.062;25.626;2022-08-21T03:13:26;20.60;99.90
68385;DHT22;55336;43.062;25.626;2022-08-21T03:15:53;20.60;99.90
68385;DHT22;55336;43.062;25.626;2022-08-21T03:18:19;20.60;99.90
68385;DHT22;55336;43.062;25.626;2022-08-21T03:20:46;20.60;99.90
68385;DHT22;55336;43.062;25.626;2022-08-21T03:23:13;20.60;99.90
68385;DHT22;55336;43.062;25.626;2022-08-21T03:25:40;20.50;99.90
68385;DHT22;55336;43.062;25.626;2022-08-21T03:28:10;20.50;99.90
68385;DHT22;55336;43.062;25.626;2022-08-21T03:30:36;20.40;99.90
68385;DHT22;55336;43.062;25.626;2022-08-21T03:33:02;20.40;99.90
68385;DHT22;55336;43.062;25.626;2022-08-21T03:35:29;20.50;99.90
68385;DHT22;55336;43.062;25.626;2022-08-21T03:37:55;20.50;99.90
68385;DHT22;55336;43.062;25.626;2022-08-21T03:40:22;20.60;99.90
68385;DHT22;55336;43.062;25.626;2022-08-21T03:42:48;20.60;99.90
68385;DHT22;55336;43.062;25.626;2022-08-21T03:45:16;20.70;99.90
68385;DHT22;55336;43.062;25.626;2022-08-21T03:47:56;20.70;99.90
68385;DHT22;55336;43.062;25.626;2022-08-21T03:50:30;20.80;99.90
68385;DHT22;55336;43.062;25.626;2022-08-21T03:52:57;20.80;99.90
68385;DHT22;55336;43.062;25.626;2022-08-21T03:55:25;20.90;99.90
68385;DHT22;55336;43.062;25.626;2022-08-21T03:57:51;20.90;99.90
68385;DHT22;55336;43.062;25.626;2022-08-21T04:00:17;20.90;99.90
68385;DHT22;55336;43.062;25.626;2022-08-21T04:02:44;20.90;99.90
68385;DHT22;55336;43.062;25.626;2022-08-21T04:05:12;21.00;99.90
68385;DHT22;55336;43.062;25.626;2022-08-21T04:07:38;21.00;99.90
68385;DHT22;55336;43.062;25.626;2022-08-21T04:10:04;21.10;99.90
68385;DHT22;55336;43.062;25.626;2022-08-21T04:12:31;21.20;99.90
68385;DHT22;55336;43.062;25.626;2022-08-21T04:14:57;21.30;99.90
68385;DHT22;55336;43.062;25.626;2022-08-21T04:17:23;21.30;99.90
68385;DHT22;55336;43.062;25.626;2022-08-21T04:19:48;21.40;99.90
68385;DHT22;55336;43.062;25.626;2022-08-21T04:22:15;21.50;99.90
68385;DHT22;55336;43.062;25.626;2022-08-21T04:24:42;21.50;99.90
68385;DHT22;55336;43.062;25.626;2022-08-21T04:27:07;21.60;99.90
68385;DHT22;55336;43.062;25.626;2022-08-21T04:29:33;21.60;99.90
68385;DHT22;55336;43.062;25.626;2022-08-21T04:31:59;21.60;99.90
68385;DHT22;55336;43.062;25.626;2022-08-21T04:34:25;21.60;99.90
68385;DHT22;55336;43.062;25.626;2022-08-21T04:36:51;21.60;99.90
68385;DHT22;55336;43.062;25.626;2022-08-21T04:39:17;21.70;99.90
68385;DHT22;55336;43.062;25.626;2022-08-21T04:41:43;21.70;99.90
68385;DHT22;55336;43.062;25.626;2022-08-21T04:44:08;21.70;99.90
68385;DHT22;55336;43.062;25.626;2022-08-21T04:46:34;21.70;99.90
68385;DHT22;55336;43.062;25.626;2022-08-21T04:49:00;21.70;99.90
68385;DHT22;55336;43.062;25.626;2022-08-21T04:51:30;21.60;99.90
68385;DHT22;55336;43.062;25.626;2022-08-21T04:54:23;21.40;99.90
68385;DHT22;55336;43.062;25.626;2022-08-21T04:56:56;21.40;99.90
68385;DHT22;55336;43.062;25.626;2022-08-21T04:59:33;21.40;99.90
68385;DHT22;55336;43.062;25.626;2022-08-21T05:02:01;21.50;99.90
68385;DHT22;55336;43.062;25.626;2022-08-21T05:04:30;21.50;99.90
68385;DHT22;55336;43.062;25.626;2022-08-21T05:07:01;21.50;99.90
68385;DHT22;55336;43.062;25.626;2022-08-21T05:09:28;21.50;99.90
68385;DHT22;55336;43.062;25.626;2022-08-21T05:11:54;21.50;99.90
68385;DHT22;55336;43.062;25.626;2022-08-21T05:14:21;21.60;99.90
68385;DHT22;55336;43.062;25.626;2022-08-21T05:16:47;21.70;99.90
68385;DHT22;55336;43.062;25.626;2022-08-21T05:19:13;21.80;99.90
68385;DHT22;55336;43.062;25.626;2022-08-21T05:21:42;21.80;99.90
68385;DHT22;55336;43.062;25.626;2022-08-21T05:24:09;21.90;99.90
68385;DHT22;55336;43.062;25.626;2022-08-21T05:26:35;21.90;99.90
68385;DHT22;55336;43.062;25.626;2022-08-21T05:29:02;21.90;99.90
68385;DHT22;55336;43.062;25.626;2022-08-21T05:31:28;21.40;99.90
68385;DHT22;55336;43.062;25.626;2022-08-21T05:33:55;21.90;99.90
68385;DHT22;55336;43.062;25.626;2022-08-21T05:36:21;22.00;99.90
68385;DHT22;55336;43.062;25.626;2022-08-21T05:38:47;22.20;99.90
68385;DHT22;55336;43.062;25.626;2022-08-21T05:41:13;22.40;99.90
68385;DHT22;55336;43.062;25.626;2022-08-21T05:43:39;22.40;99.90
68385;DHT22;55336;43.062;25.626;2022-08-21T05:46:07;22.60;99.90
68385;DHT22;55336;43.062;25.626;2022-08-21T05:48:34;22.70;99.90
68385;DHT22;55336;43.062;25.626;2022-08-21T05:51:09;22.80;99.90
68385;DHT22;55336;43.062;25.626;2022-08-21T05:53:36;22.70;99.90
68385;DHT22;55336;43.062;25.626;2022-08-21T05:56:02;22.80;99.90
68385;DHT22;55336;43.062;25.626;2022-08-21T05:58:30;22.90;99.90
68385;DHT22;55336;43.062;25.626;2022-08-21T06:00:56;23.10;99.90
68385;DHT22;55336;43.062;25.626;2022-08-21T06:03:29;23.20;99.90
68385;DHT22;55336;43.062;25.626;2022-08-21T06:05:55;23.20;99.90
68385;DHT22;55336;43.062;25.626;2022-08-21T06:08:22;23.20;99.90
68385;DHT22;55336;43.062;25.626;2022-08-21T06:10:49;23.30;99.90
68385;DHT22;55336;43.062;25.626;2022-08-21T06:13:17;23.40;99.90
68385;DHT22;55336;43.062;25.626;2022-08-21T06:15:43;23.60;99.90
68385;DHT22;55336;43.062;25.626;2022-08-21T06:18:09;23.80;99.90
68385;DHT22;55336;43.062;25.626;2022-08-21T06:20:36;23.90;99.90
68385;DHT22;55336;43.062;25.626;2022-08-21T06:23:02;24.10;99.90
68385;DHT22;55336;43.062;25.626;2022-08-21T06:25:28;24.10;99.90
68385;DHT22;55336;43.062;25.626;2022-08-21T06:28:04;24.00;99.90
68385;DHT22;55336;43.062;25.626;2022-08-21T06:30:30;24.10;99.90
68385;DHT22;55336;43.062;25.626;2022-08-21T06:32:57;24.50;99.90
68385;DHT22;55336;43.062;25.626;2022-08-21T06:35:26;24.60;99.90
68385;DHT22;55336;43.062;25.626;2022-08-21T06:37:54;24.80;99.90
68385;DHT22;55336;43.062;25.626;2022-08-21T06:40:21;24.80;99.90
68385;DHT22;55336;43.062;25.626;2022-08-21T06:42:47;24.80;99.90
68385;DHT22;55336;43.062;25.626;2022-08-21T06:45:13;25.00;99.90
68385;DHT22;55336;43.062;25.626;2022-08-21T06:47:39;24.80;99.90
68385;DHT22;55336;43.062;25.626;2022-08-21T06:50:05;24.90;99.90
68385;DHT22;55336;43.062;25.626;2022-08-21T06:52:36;24.80;99.90
68385;DHT22;55336;43.062;25.626;2022-08-21T06:55:06;24.80;99.90
68385;DHT22;55336;43.062;25.626;2022-08-21T06:57:32;24.80;99.90
68385;DHT22;55336;43.062;25.626;2022-08-21T07:00:03;24.80;99.90
68385;DHT22;55336;43.062;25.626;2022-08-21T07:02:30;24.80;99.90
68385;DHT22;55336;43.062;25.626;2022-08-21T07:04:56;24.80;99.90
68385;DHT22;55336;43.062;25.626;2022-08-21T07:07:23;25.00;99.90
68385;DHT22;55336;43.062;25.626;2022-08-21T07:09:48;25.00;99.90
68385;DHT22;55336;43.062;25.626;2022-08-21T07:12:14;25.00;99.90
68385;DHT22;55336;43.062;25.626;2022-08-21T07:14:40;25.10;99.90
68385;DHT22;55336;43.062;25.626;2022-08-21T07:17:06;25.20;99.90
68385;DHT22;55336;43.062;25.626;2022-08-21T07:19:32;25.20;99.90
68385;DHT22;55336;43.062;25.626;2022-08-21T07:21:58;25.20;99.90
68385;DHT22;55336;43.062;25.626;2022-08-21T07:24:25;25.40;99.90
68385;DHT22;55336;43.062;25.626;2022-08-21T07:26:51;25.70;99.90
68385;DHT22;55336;43.062;25.626;2022-08-21T07:29:17;25.80;99.90
68385;DHT22;55336;43.062;25.626;2022-08-21T07:31:44;25.60;99.90
68385;DHT22;55336;43.062;25.626;2022-08-21T07:34:10;25.60;99.90
68385;DHT22;55336;43.062;25.626;2022-08-21T07:36:36;25.80;99.90
68385;DHT22;55336;43.062;25.626;2022-08-21T07:39:01;25.90;99.90
68385;DHT22;55336;43.062;25.626;2022-08-21T07:41:28;25.90;99.90
68385;DHT22;55336;43.062;25.626;2022-08-21T07:43:55;25.90;99.90
68385;DHT22;55336;43.062;25.626;2022-08-21T07:46:23;26.00;99.90
68385;DHT22;55336;43.062;25.626;2022-08-21T07:48:49;26.30;99.90
68385;DHT22;55336;43.062;25.626;2022-08-21T07:51:15;26.60;99.90
68385;DHT22;55336;43.062;25.626;2022-08-21T07:53:46;26.50;99.90
68385;DHT22;55336;43.062;25.626;2022-08-21T07:56:12;26.40;99.90
68385;DHT22;55336;43.062;25.626;2022-08-21T07:58:38;26.20;99.90
68385;DHT22;55336;43.062;25.626;2022-08-21T08:01:06;26.20;99.90
68385;DHT22;55336;43.062;25.626;2022-08-21T08:03:32;26.00;99.90
68385;DHT22;55336;43.062;25.626;2022-08-21T08:05:57;26.00;99.90
68385;DHT22;55336;43.062;25.626;2022-08-21T08:08:24;26.00;99.90
68385;DHT22;55336;43.062;25.626;2022-08-21T08:10:50;25.90;99.90
68385;DHT22;55336;43.062;25.626;2022-08-21T08:13:16;26.00;99.90
68385;DHT22;55336;43.062;25.626;2022-08-21T08:15:42;26.10;99.90
68385;DHT22;55336;43.062;25.626;2022-08-21T08:18:08;26.10;99.90
68385;DHT22;55336;43.062;25.626;2022-08-21T08:20:34;26.30;99.90
68385;DHT22;55336;43.062;25.626;2022-08-21T08:22:59;26.40;99.90
68385;DHT22;55336;43.062;25.626;2022-08-21T08:25:26;26.50;99.90
68385;DHT22;55336;43.062;25.626;2022-08-21T08:27:53;26.40;99.90
68385;DHT22;55336;43.062;25.626;2022-08-21T08:30:20;26.40;99.90
68385;DHT22;55336;43.062;25.626;2022-08-21T08:32:46;26.60;99.90
68385;DHT22;55336;43.062;25.626;2022-08-21T08:35:13;26.80;99.90
68385;DHT22;55336;43.062;25.626;2022-08-21T08:37:40;27.00;99.90
68385;DHT22;55336;43.062;25.626;2022-08-21T08:40:19;27.10;99.90
68385;DHT22;55336;43.062;25.626;2022-08-21T08:42:47;27.70;99.90
68385;DHT22;55336;43.062;25.626;2022-08-21T08:45:18;28.10;99.90
68385;DHT22;55336;43.062;25.626;2022-08-21T08:47:49;28.00;99.90
68385;DHT22;55336;43.062;25.626;2022-08-21T08:50:27;28.40;99.90
68385;DHT22;55336;43.062;25.626;2022-08-21T08:52:59;29.50;99.90
68385;DHT22;55336;43.062;25.626;2022-08-21T08:55:37;30.40;89.90
68385;DHT22;55336;43.062;25.626;2022-08-21T08:58:04;31.20;88.30
68385;DHT22;55336;43.062;25.626;2022-08-21T09:00:31;31.80;78.90
68385;DHT22;55336;43.062;25.626;2022-08-21T09:02:59;31.90;79.80
68385;DHT22;55336;43.062;25.626;2022-08-21T09:19:23;30.60;74.10
68385;DHT22;55336;43.062;25.626;2022-08-21T09:24:34;31.40;69.80
68385;DHT22;55336;43.062;25.626;2022-08-21T09:27:18;31.50;67.90
68385;DHT22;55336;43.062;25.626;2022-08-21T09:29:49;31.10;71.90
68385;DHT22;55336;43.062;25.626;2022-08-21T09:32:23;31.60;68.00
68385;DHT22;55336;43.062;25.626;2022-08-21T09:37:33;31.30;66.00
68385;DHT22;55336;43.062;25.626;2022-08-21T09:40:01;31.40;68.30
68385;DHT22;55336;43.062;25.626;2022-08-21T09:42:32;31.50;65.70
68385;DHT22;55336;43.062;25.626;2022-08-21T09:45:24;32.20;64.70
68385;DHT22;55336;43.062;25.626;2022-08-21T09:47:50;32.20;61.10
68385;DHT22;55336;43.062;25.626;2022-08-21T09:50:22;31.90;61.10
68385;DHT22;55336;43.062;25.626;2022-08-21T09:52:57;32.10;59.80
68385;DHT22;55336;43.062;25.626;2022-08-21T09:58:17;32.60;58.20
68385;DHT22;55336;43.062;25.626;2022-08-21T10:00:43;32.70;56.20
68385;DHT22;55336;43.062;25.626;2022-08-21T10:03:19;33.40;56.20
68385;DHT22;55336;43.062;25.626;2022-08-21T10:05:58;33.80;51.90
68385;DHT22;55336;43.062;25.626;2022-08-21T10:08:26;34.10;51.80
68385;DHT22;55336;43.062;25.626;2022-08-21T10:11:08;33.60;51.20
68385;DHT22;55336;43.062;25.626;2022-08-21T10:22:29;32.90;50.30
68385;DHT22;55336;43.062;25.626;2022-08-21T10:28:20;33.30;48.40
68385;DHT22;55336;43.062;25.626;2022-08-21T10:31:03;34.00;48.00
68385;DHT22;55336;43.062;25.626;2022-08-21T10:33:37;34.60;46.00
68385;DHT22;55336;43.062;25.626;2022-08-21T10:36:17;34.20;46.60
68385;DHT22;55336;43.062;25.626;2022-08-21T10:41:43;33.40;47.50
68385;DHT22;55336;43.062;25.626;2022-08-21T10:44:47;33.80;47.90
68385;DHT22;55336;43.062;25.626;2022-08-21T10:47:23;34.30;46.30
68385;DHT22;55336;43.062;25.626;2022-08-21T10:55:18;34.70;43.20
68385;DHT22;55336;43.062;25.626;2022-08-21T11:00:43;35.20;42.40
68385;DHT22;55336;43.062;25.626;2022-08-21T11:03:22;35.80;41.10
68385;DHT22;55336;43.062;25.626;2022-08-21T11:06:07;36.10;41.70
68385;DHT22;55336;43.062;25.626;2022-08-21T11:08:40;35.50;40.50
68385;DHT22;55336;43.062;25.626;2022-08-21T11:11:18;35.30;40.60
68385;DHT22;55336;43.062;25.626;2022-08-21T11:13:53;35.60;39.60
68385;DHT22;55336;43.062;25.626;2022-08-21T11:16:39;35.30;40.20
68385;DHT22;55336;43.062;25.626;2022-08-21T11:19:36;35.90;38.10
68385;DHT22;55336;43.062;25.626;2022-08-21T11:22:18;36.10;39.50
68385;DHT22;55336;43.062;25.626;2022-08-21T11:24:54;36.30;37.20
68385;DHT22;55336;43.062;25.626;2022-08-21T11:27:26;36.00;37.30
68385;DHT22;55336;43.062;25.626;2022-08-21T11:29:57;36.60;35.70
68385;DHT22;55336;43.062;25.626;2022-08-21T11:46:11;37.50;33.10
68385;DHT22;55336;43.062;25.626;2022-08-21T11:51:15;36.80;33.20
68385;DHT22;55336;43.062;25.626;2022-08-21T11:53:49;36.80;33.30
68385;DHT22;55336;43.062;25.626;2022-08-21T11:56:59;36.80;32.00
68385;DHT22;55336;43.062;25.626;2022-08-21T11:59:45;36.50;32.70
68385;DHT22;55336;43.062;25.626;2022-08-21T12:02:21;36.40;33.40
68385;DHT22;55336;43.062;25.626;2022-08-21T12:04:59;36.90;31.80
68385;DHT22;55336;43.062;25.626;2022-08-21T12:07:39;37.30;31.80
68385;DHT22;55336;43.062;25.626;2022-08-21T12:10:15;36.10;30.40
68385;DHT22;55336;43.062;25.626;2022-08-21T12:12:43;37.30;31.50
68385;DHT22;55336;43.062;25.626;2022-08-21T12:18:03;37.20;30.60
68385;DHT22;55336;43.062;25.626;2022-08-21T12:25:46;36.20;32.10
68385;DHT22;55336;43.062;25.626;2022-08-21T12:28:22;36.00;32.10
68385;DHT22;55336;43.062;25.626;2022-08-21T12:30:49;34.10;36.80
68385;DHT22;55336;43.062;25.626;2022-08-21T12:36:12;34.30;36.20
68385;DHT22;55336;43.062;25.626;2022-08-21T12:38:59;34.20;38.30
68385;DHT22;55336;43.062;25.626;2022-08-21T12:41:42;34.10;36.20
68385;DHT22;55336;43.062;25.626;2022-08-21T12:44:42;33.60;38.50
68385;DHT22;55336;43.062;25.626;2022-08-21T12:47:30;33.30;40.60
68385;DHT22;55336;43.062;25.626;2022-08-21T12:50:05;33.40;40.80
68385;DHT22;55336;43.062;25.626;2022-08-21T12:52:40;33.20;41.20
68385;DHT22;55336;43.062;25.626;2022-08-21T12:55:26;33.00;44.30
68385;DHT22;55336;43.062;25.626;2022-08-21T12:57:52;32.40;45.40
68385;DHT22;55336;43.062;25.626;2022-08-21T13:00:23;32.50;44.40
68385;DHT22;55336;43.062;25.626;2022-08-21T13:02:50;32.40;44.40
68385;DHT22;55336;43.062;25.626;2022-08-21T13:07:51;32.00;43.80
68385;DHT22;55336;43.062;25.626;2022-08-21T13:10:26;31.50;46.80
68385;DHT22;55336;43.062;25.626;2022-08-21T13:12:59;30.80;49.80
68385;DHT22;55336;43.062;25.626;2022-08-21T13:15:31;29.90;52.50
68385;DHT22;55336;43.062;25.626;2022-08-21T13:17:58;29.50;54.60
68385;DHT22;55336;43.062;25.626;2022-08-21T13:20:36;29.10;57.10
68385;DHT22;55336;43.062;25.626;2022-08-21T13:23:21;28.50;59.10
68385;DHT22;55336;43.062;25.626;2022-08-21T13:25:48;28.20;60.90
68385;DHT22;55336;43.062;25.626;2022-08-21T13:28:15;27.80;62.70
68385;DHT22;55336;43.062;25.626;2022-08-21T13:30:48;27.60;63.50
68385;DHT22;55336;43.062;25.626;2022-08-21T13:33:17;27.50;64.70
68385;DHT22;55336;43.062;25.626;2022-08-21T13:38:25;26.80;68.90
68385;DHT22;55336;43.062;25.626;2022-08-21T13:40:58;26.80;69.50
68385;DHT22;55336;43.062;25.626;2022-08-21T13:43:33;26.70;70.80
68385;DHT22;55336;43.062;25.626;2022-08-21T13:46:00;26.70;71.50
68385;DHT22;55336;43.062;25.626;2022-08-21T13:48:30;26.70;72.00
68385;DHT22;55336;43.062;25.626;2022-08-21T13:50:59;26.50;73.60
68385;DHT22;55336;43.062;25.626;2022-08-21T13:53:36;26.20;77.50
68385;DHT22;55336;43.062;25.626;2022-08-21T13:56:04;25.90;79.20
68385;DHT22;55336;43.062;25.626;2022-08-21T13:58:42;25.80;79.40
68385;DHT22;55336;43.062;25.626;2022-08-21T14:03:50;25.60;83.60
68385;DHT22;55336;43.062;25.626;2022-08-21T14:06:26;25.50;84.20
68385;DHT22;55336;43.062;25.626;2022-08-21T14:09:01;25.40;85.80
68385;DHT22;55336;43.062;25.626;2022-08-21T14:11:38;25.30;90.80
68385;DHT22;55336;43.062;25.626;2022-08-21T14:17:36;24.90;98.60
68385;DHT22;55336;43.062;25.626;2022-08-21T14:20:08;24.60;99.90
68385;DHT22;55336;43.062;25.626;2022-08-21T14:23:04;24.50;99.90
68385;DHT22;55336;43.062;25.626;2022-08-21T14:25:42;24.30;99.90
68385;DHT22;55336;43.062;25.626;2022-08-21T14:31:20;23.90;99.90
68385;DHT22;55336;43.062;25.626;2022-08-21T14:34:20;23.50;99.90
68385;DHT22;55336;43.062;25.626;2022-08-21T14:37:15;23.20;99.90
68385;DHT22;55336;43.062;25.626;2022-08-21T14:39:45;22.70;99.90
68385;DHT22;55336;43.062;25.626;2022-08-21T14:42:14;23.00;99.90
68385;DHT22;55336;43.062;25.626;2022-08-21T14:44:41;23.00;99.90
68385;DHT22;55336;43.062;25.626;2022-08-21T14:47:08;22.70;99.90
68385;DHT22;55336;43.062;25.626;2022-08-21T14:49:34;22.60;99.90
68385;DHT22;55336;43.062;25.626;2022-08-21T14:51:59;22.60;99.90
68385;DHT22;55336;43.062;25.626;2022-08-21T14:54:30;22.60;99.90
68385;DHT22;55336;43.062;25.626;2022-08-21T14:57:08;22.70;99.90
68385;DHT22;55336;43.062;25.626;2022-08-21T14:59:47;22.70;99.90
68385;DHT22;55336;43.062;25.626;2022-08-21T15:02:41;22.70;99.90
68385;DHT22;55336;43.062;25.626;2022-08-21T15:09:08;22.70;99.90
68385;DHT22;55336;43.062;25.626;2022-08-21T15:12:03;22.30;99.90
68385;DHT22;55336;43.062;25.626;2022-08-21T15:14:56;22.40;99.90
68385;DHT22;55336;43.062;25.626;2022-08-21T15:18:22;22.50;99.90
68385;DHT22;55336;43.062;25.626;2022-08-21T15:20:48;22.40;99.90
68385;DHT22;55336;43.062;25.626;2022-08-21T15:23:17;22.30;99.90
68385;DHT22;55336;43.062;25.626;2022-08-21T15:25:48;22.40;99.90
68385;DHT22;55336;43.062;25.626;2022-08-21T15:29:17;22.30;99.90
68385;DHT22;55336;43.062;25.626;2022-08-21T15:31:54;22.30;99.90
68385;DHT22;55336;43.062;25.626;2022-08-21T15:34:21;22.30;99.90
68385;DHT22;55336;43.062;25.626;2022-08-21T15:36:47;22.20;99.90
68385;DHT22;55336;43.062;25.626;2022-08-21T15:39:13;22.20;99.90
68385;DHT22;55336;43.062;25.626;2022-08-21T15:41:39;22.20;99.90
68385;DHT22;55336;43.062;25.626;2022-08-21T15:44:06;22.10;99.90
68385;DHT22;55336;43.062;25.626;2022-08-21T15:46:32;22.10;99.90
68385;DHT22;55336;43.062;25.626;2022-08-21T15:48:58;22.10;99.90
68385;DHT22;55336;43.062;25.626;2022-08-21T15:55:21;21.60;99.90
68385;DHT22;55336;43.062;25.626;2022-08-21T15:57:52;21.90;99.90
68385;DHT22;55336;43.062;25.626;2022-08-21T16:00:23;21.80;99.90
68385;DHT22;55336;43.062;25.626;2022-08-21T16:03:16;21.80;99.90
68385;DHT22;55336;43.062;25.626;2022-08-21T16:05:58;21.70;99.90
68385;DHT22;55336;43.062;25.626;2022-08-21T16:08:43;21.90;99.90
68385;DHT22;55336;43.062;25.626;2022-08-21T16:11:37;21.90;99.90
68385;DHT22;55336;43.062;25.626;2022-08-21T16:14:10;22.00;99.90
68385;DHT22;55336;43.062;25.626;2022-08-21T16:16:42;22.00;99.90
68385;DHT22;55336;43.062;25.626;2022-08-21T16:19:10;21.90;99.90
68385;DHT22;55336;43.062;25.626;2022-08-21T16:21:36;21.90;99.90
68385;DHT22;55336;43.062;25.626;2022-08-21T16:24:05;21.90;99.90
68385;DHT22;55336;43.062;25.626;2022-08-21T16:26:34;22.00;99.90
68385;DHT22;55336;43.062;25.626;2022-08-21T16:29:01;21.80;99.90
68385;DHT22;55336;43.062;25.626;2022-08-21T16:31:32;21.90;99.90
68385;DHT22;55336;43.062;25.626;2022-08-21T16:33:59;21.90;99.90
68385;DHT22;55336;43.062;25.626;2022-08-21T16:36:26;21.90;99.90
68385;DHT22;55336;43.062;25.626;2022-08-21T16:38:53;21.90;99.90
68385;DHT22;55336;43.062;25.626;2022-08-21T16:41:20;22.00;99.90
68385;DHT22;55336;43.062;25.626;2022-08-21T16:43:48;21.80;99.90
68385;DHT22;55336;43.062;25.626;2022-08-21T16:46:15;21.90;99.90
68385;DHT22;55336;43.062;25.626;2022-08-21T16:48:43;21.90;99.90
68385;DHT22;55336;43.062;25.626;2022-08-21T16:51:13;21.90;99.90
68385;DHT22;55336;43.062;25.626;2022-08-21T16:53:39;21.90;99.90
68385;DHT22;55336;43.062;25.626;2022-08-21T16:56:05;21.90;99.90
68385;DHT22;55336;43.062;25.626;2022-08-21T16:58:34;21.80;99.90
68385;DHT22;55336;43.062;25.626;2022-08-21T17:01:04;21.70;99.90
68385;DHT22;55336;43.062;25.626;2022-08-21T17:03:41;21.60;99.90
68385;DHT22;55336;43.062;25.626;2022-08-21T17:06:09;21.40;99.90
68385;DHT22;55336;43.062;25.626;2022-08-21T17:08:36;21.20;99.90
68385;DHT22;55336;43.062;25.626;2022-08-21T17:11:05;21.10;99.90